Charlotte (CLT/KCLT)

Map

Destinations

Information

Location
Charlotte, NC
Local Time
15:53 / 3:53 pm
GMT Time
19:53 / 7:53 pm
Gates
A7
No FAA reported delays
METAR KCLT 281852Z 23008G15KT 10SM BKN031 BKN250 28/19 A3008 RMK AO2 SLP175 T02830189
TAF KCLT 281901Z 2819/2918 20009KT P6SM BKN035 FM282100 21008KT P6SM SCT035 FM290900 VRB03KT 3SM BR BKN008 FM291200 19006KT P6SM SCT008 FM291400 19006KT P6SM SCT015 FM291600 20007KT P6SM SCT150